sensor_id;sensor_type;location;lat;lon;timestamp;temperature;humidity
18741;DHT22;9499;52.472;13.448;2023-11-21T00:00:40;8.60;99.90
18741;DHT22;9499;52.472;13.448;2023-11-21T00:03:07;8.50;99.90
18741;DHT22;9499;52.472;13.448;2023-11-21T00:05:34;8.50;99.90
18741;DHT22;9499;52.472;13.448;2023-11-21T00:08:01;8.50;99.90
18741;DHT22;9499;52.472;13.448;2023-11-21T00:10:28;8.50;99.90
18741;DHT22;9499;52.472;13.448;2023-11-21T00:12:54;8.50;99.90
18741;DHT22;9499;52.472;13.448;2023-11-21T00:15:21;8.40;99.90
18741;DHT22;9499;52.472;13.448;2023-11-21T00:17:48;8.40;99.90
18741;DHT22;9499;52.472;13.448;2023-11-21T00:20:14;8.30;99.90
18741;DHT22;9499;52.472;13.448;2023-11-21T00:22:42;8.30;99.90
18741;DHT22;9499;52.472;13.448;2023-11-21T00:25:09;8.20;99.90
18741;DHT22;9499;52.472;13.448;2023-11-21T00:27:35;8.10;99.90
18741;DHT22;9499;52.472;13.448;2023-11-21T00:30:03;8.10;99.90
18741;DHT22;9499;52.472;13.448;2023-11-21T00:32:31;8.10;99.90
18741;DHT22;9499;52.472;13.448;2023-11-21T00:34:57;8.10;99.90
18741;DHT22;9499;52.472;13.448;2023-11-21T00:37:24;8.10;99.90
18741;DHT22;9499;52.472;13.448;2023-11-21T00:39:52;8.00;99.90
18741;DHT22;9499;52.472;13.448;2023-11-21T00:42:19;7.90;99.90
18741;DHT22;9499;52.472;13.448;2023-11-21T00:44:46;7.90;99.90
18741;DHT22;9499;52.472;13.448;2023-11-21T00:47:13;7.80;99.90
18741;DHT22;9499;52.472;13.448;2023-11-21T00:49:39;7.80;99.90
18741;DHT22;9499;52.472;13.448;2023-11-21T00:52:06;7.80;99.90
18741;DHT22;9499;52.472;13.448;2023-11-21T00:54:33;7.80;99.90
18741;DHT22;9499;52.472;13.448;2023-11-21T00:57:01;7.70;99.90
18741;DHT22;9499;52.472;13.448;2023-11-21T00:59:27;7.60;99.90
18741;DHT22;9499;52.472;13.448;2023-11-21T01:01:54;7.60;99.90
18741;DHT22;9499;52.472;13.448;2023-11-21T01:04:20;7.60;99.90
18741;DHT22;9499;52.472;13.448;2023-11-21T01:06:47;7.60;99.90
18741;DHT22;9499;52.472;13.448;2023-11-21T01:09:13;7.50;99.90
18741;DHT22;9499;52.472;13.448;2023-11-21T01:11:40;7.50;99.90
18741;DHT22;9499;52.472;13.448;2023-11-21T01:14:08;7.50;99.90
18741;DHT22;9499;52.472;13.448;2023-11-21T01:16:36;7.50;99.90
18741;DHT22;9499;52.472;13.448;2023-11-21T01:19:02;7.40;99.90
18741;DHT22;9499;52.472;13.448;2023-11-21T01:21:29;7.40;99.90
18741;DHT22;9499;52.472;13.448;2023-11-21T01:23:56;7.40;99.90
18741;DHT22;9499;52.472;13.448;2023-11-21T01:26:23;7.30;99.90
18741;DHT22;9499;52.472;13.448;2023-11-21T01:28:49;7.20;99.90
18741;DHT22;9499;52.472;13.448;2023-11-21T01:31:17;7.10;99.90
18741;DHT22;9499;52.472;13.448;2023-11-21T01:33:44;7.10;99.90
18741;DHT22;9499;52.472;13.448;2023-11-21T01:36:11;7.00;99.90
18741;DHT22;9499;52.472;13.448;2023-11-21T01:38:37;7.00;99.90
18741;DHT22;9499;52.472;13.448;2023-11-21T01:41:04;7.10;99.90
18741;DHT22;9499;52.472;13.448;2023-11-21T01:43:31;7.10;99.90
18741;DHT22;9499;52.472;13.448;2023-11-21T01:45:58;7.10;99.90
18741;DHT22;9499;52.472;13.448;2023-11-21T01:48:27;7.10;99.90
18741;DHT22;9499;52.472;13.448;2023-11-21T01:50:54;7.10;99.90
18741;DHT22;9499;52.472;13.448;2023-11-21T01:53:20;7.10;99.90
18741;DHT22;9499;52.472;13.448;2023-11-21T01:55:47;7.20;99.90
18741;DHT22;9499;52.472;13.448;2023-11-21T01:58:14;7.10;99.90
18741;DHT22;9499;52.472;13.448;2023-11-21T02:00:42;7.10;99.90
18741;DHT22;9499;52.472;13.448;2023-11-21T02:03:08;7.10;99.90
18741;DHT22;9499;52.472;13.448;2023-11-21T02:05:37;7.00;99.90
18741;DHT22;9499;52.472;13.448;2023-11-21T02:08:03;7.00;99.90
18741;DHT22;9499;52.472;13.448;2023-11-21T02:10:30;6.90;99.90
18741;DHT22;9499;52.472;13.448;2023-11-21T02:12:57;6.90;99.90
18741;DHT22;9499;52.472;13.448;2023-11-21T02:15:24;6.90;99.90
18741;DHT22;9499;52.472;13.448;2023-11-21T02:17:54;6.90;99.90
18741;DHT22;9499;52.472;13.448;2023-11-21T02:20:21;6.80;99.90
18741;DHT22;9499;52.472;13.448;2023-11-21T02:22:52;6.90;99.90
18741;DHT22;9499;52.472;13.448;2023-11-21T02:25:23;6.80;99.90
18741;DHT22;9499;52.472;13.448;2023-11-21T02:27:49;6.80;99.90
18741;DHT22;9499;52.472;13.448;2023-11-21T02:30:16;6.70;99.90
18741;DHT22;9499;52.472;13.448;2023-11-21T02:32:44;6.60;99.90
18741;DHT22;9499;52.472;13.448;2023-11-21T02:35:11;6.70;99.90
18741;DHT22;9499;52.472;13.448;2023-11-21T02:37:38;6.70;99.90
18741;DHT22;9499;52.472;13.448;2023-11-21T02:40:09;6.70;99.90
18741;DHT22;9499;52.472;13.448;2023-11-21T02:42:37;6.70;99.90
18741;DHT22;9499;52.472;13.448;2023-11-21T02:45:04;6.70;99.90
18741;DHT22;9499;52.472;13.448;2023-11-21T02:47:31;6.70;99.90
18741;DHT22;9499;52.472;13.448;2023-11-21T02:49:57;6.60;99.90
18741;DHT22;9499;52.472;13.448;2023-11-21T02:52:23;6.50;99.90
18741;DHT22;9499;52.472;13.448;2023-11-21T02:54:50;6.50;99.90
18741;DHT22;9499;52.472;13.448;2023-11-21T02:57:18;6.60;99.90
18741;DHT22;9499;52.472;13.448;2023-11-21T02:59:44;6.60;99.90
18741;DHT22;9499;52.472;13.448;2023-11-21T03:02:10;6.60;99.90
18741;DHT22;9499;52.472;13.448;2023-11-21T03:04:37;6.50;99.90
18741;DHT22;9499;52.472;13.448;2023-11-21T03:07:04;6.50;99.90
18741;DHT22;9499;52.472;13.448;2023-11-21T03:09:30;6.50;99.90
18741;DHT22;9499;52.472;13.448;2023-11-21T03:11:57;6.60;99.90
18741;DHT22;9499;52.472;13.448;2023-11-21T03:14:24;6.60;99.90
18741;DHT22;9499;52.472;13.448;2023-11-21T03:16:51;6.60;99.90
18741;DHT22;9499;52.472;13.448;2023-11-21T03:19:17;6.50;99.90
18741;DHT22;9499;52.472;13.448;2023-11-21T03:21:44;6.40;99.90
18741;DHT22;9499;52.472;13.448;2023-11-21T03:24:10;6.30;99.90
18741;DHT22;9499;52.472;13.448;2023-11-21T03:26:37;6.30;99.90
18741;DHT22;9499;52.472;13.448;2023-11-21T03:29:03;6.40;99.90
18741;DHT22;9499;52.472;13.448;2023-11-21T03:31:31;6.40;99.90
18741;DHT22;9499;52.472;13.448;2023-11-21T03:33:58;6.40;99.90
18741;DHT22;9499;52.472;13.448;2023-11-21T03:36:24;6.40;99.90
18741;DHT22;9499;52.472;13.448;2023-11-21T03:38:51;6.40;99.90
18741;DHT22;9499;52.472;13.448;2023-11-21T03:41:17;6.40;99.90
18741;DHT22;9499;52.472;13.448;2023-11-21T03:43:44;6.40;99.90
18741;DHT22;9499;52.472;13.448;2023-11-21T03:46:10;6.30;99.90
18741;DHT22;9499;52.472;13.448;2023-11-21T03:48:38;6.30;99.90
18741;DHT22;9499;52.472;13.448;2023-11-21T03:51:06;6.30;99.90
18741;DHT22;9499;52.472;13.448;2023-11-21T03:53:32;6.20;99.90
18741;DHT22;9499;52.472;13.448;2023-11-21T03:56:02;6.20;99.90
18741;DHT22;9499;52.472;13.448;2023-11-21T03:58:28;6.20;99.90
18741;DHT22;9499;52.472;13.448;2023-11-21T04:00:55;6.20;99.90
18741;DHT22;9499;52.472;13.448;2023-11-21T04:03:21;6.20;99.90
18741;DHT22;9499;52.472;13.448;2023-11-21T04:05:49;6.20;99.90
18741;DHT22;9499;52.472;13.448;2023-11-21T04:08:16;6.20;99.90
18741;DHT22;9499;52.472;13.448;2023-11-21T04:10:43;6.20;99.90
18741;DHT22;9499;52.472;13.448;2023-11-21T04:13:09;6.30;99.90
18741;DHT22;9499;52.472;13.448;2023-11-21T04:15:36;6.20;99.90
18741;DHT22;9499;52.472;13.448;2023-11-21T04:18:03;6.20;99.90
18741;DHT22;9499;52.472;13.448;2023-11-21T04:20:29;6.10;99.90
18741;DHT22;9499;52.472;13.448;2023-11-21T04:22:57;6.10;99.90
18741;DHT22;9499;52.472;13.448;2023-11-21T04:25:24;6.10;99.90
18741;DHT22;9499;52.472;13.448;2023-11-21T04:27:50;6.10;99.90
18741;DHT22;9499;52.472;13.448;2023-11-21T04:30:17;6.00;99.90
18741;DHT22;9499;52.472;13.448;2023-11-21T04:32:46;6.10;99.90
18741;DHT22;9499;52.472;13.448;2023-11-21T04:35:12;6.10;99.90
18741;DHT22;9499;52.472;13.448;2023-11-21T04:37:40;6.10;99.90
18741;DHT22;9499;52.472;13.448;2023-11-21T04:40:09;6.10;99.90
18741;DHT22;9499;52.472;13.448;2023-11-21T04:42:36;6.00;99.90
18741;DHT22;9499;52.472;13.448;2023-11-21T04:45:05;6.00;99.90
18741;DHT22;9499;52.472;13.448;2023-11-21T04:47:34;6.10;99.90
18741;DHT22;9499;52.472;13.448;2023-11-21T04:50:01;6.00;99.90
18741;DHT22;9499;52.472;13.448;2023-11-21T04:52:28;6.00;99.90
18741;DHT22;9499;52.472;13.448;2023-11-21T04:54:55;6.00;99.90
18741;DHT22;9499;52.472;13.448;2023-11-21T04:57:24;6.00;99.90
18741;DHT22;9499;52.472;13.448;2023-11-21T04:59:51;6.00;99.90
18741;DHT22;9499;52.472;13.448;2023-11-21T05:02:18;6.00;99.90
18741;DHT22;9499;52.472;13.448;2023-11-21T05:04:46;6.00;99.90
18741;DHT22;9499;52.472;13.448;2023-11-21T05:07:13;6.00;99.90
18741;DHT22;9499;52.472;13.448;2023-11-21T05:09:41;6.00;99.90
18741;DHT22;9499;52.472;13.448;2023-11-21T05:12:09;6.00;99.90
18741;DHT22;9499;52.472;13.448;2023-11-21T05:14:37;6.00;99.90
18741;DHT22;9499;52.472;13.448;2023-11-21T05:17:04;6.00;99.90
18741;DHT22;9499;52.472;13.448;2023-11-21T05:19:30;6.00;99.90
18741;DHT22;9499;52.472;13.448;2023-11-21T05:21:58;6.00;99.90
18741;DHT22;9499;52.472;13.448;2023-11-21T05:24:25;6.00;99.90
18741;DHT22;9499;52.472;13.448;2023-11-21T05:26:52;6.00;99.90
18741;DHT22;9499;52.472;13.448;2023-11-21T05:29:18;6.00;99.90
18741;DHT22;9499;52.472;13.448;2023-11-21T05:31:46;6.00;99.90
18741;DHT22;9499;52.472;13.448;2023-11-21T05:34:13;6.00;99.90
18741;DHT22;9499;52.472;13.448;2023-11-21T05:36:40;5.90;99.90
18741;DHT22;9499;52.472;13.448;2023-11-21T05:39:06;5.90;99.90
18741;DHT22;9499;52.472;13.448;2023-11-21T05:41:33;5.90;99.90
18741;DHT22;9499;52.472;13.448;2023-11-21T05:43:59;5.90;99.90
18741;DHT22;9499;52.472;13.448;2023-11-21T05:46:27;5.80;99.90
18741;DHT22;9499;52.472;13.448;2023-11-21T05:48:55;5.90;99.90
18741;DHT22;9499;52.472;13.448;2023-11-21T05:51:22;5.80;99.90
18741;DHT22;9499;52.472;13.448;2023-11-21T05:53:50;5.80;99.90
18741;DHT22;9499;52.472;13.448;2023-11-21T05:56:16;5.80;99.90
18741;DHT22;9499;52.472;13.448;2023-11-21T05:58:43;5.80;99.90
18741;DHT22;9499;52.472;13.448;2023-11-21T06:01:10;5.80;99.90
18741;DHT22;9499;52.472;13.448;2023-11-21T06:03:38;5.90;99.90
18741;DHT22;9499;52.472;13.448;2023-11-21T06:06:06;5.80;99.90
18741;DHT22;9499;52.472;13.448;2023-11-21T06:08:33;5.80;99.90
18741;DHT22;9499;52.472;13.448;2023-11-21T06:10:59;5.80;99.90
18741;DHT22;9499;52.472;13.448;2023-11-21T06:13:26;5.70;99.90
18741;DHT22;9499;52.472;13.448;2023-11-21T06:15:53;5.70;99.90
18741;DHT22;9499;52.472;13.448;2023-11-21T06:18:20;5.80;99.90
18741;DHT22;9499;52.472;13.448;2023-11-21T06:20:46;5.70;99.90
18741;DHT22;9499;52.472;13.448;2023-11-21T06:23:14;5.80;99.90
18741;DHT22;9499;52.472;13.448;2023-11-21T06:25:41;5.80;99.90
18741;DHT22;9499;52.472;13.448;2023-11-21T06:28:08;5.80;99.90
18741;DHT22;9499;52.472;13.448;2023-11-21T06:30:34;5.80;99.90
18741;DHT22;9499;52.472;13.448;2023-11-21T06:33:01;5.70;99.90
18741;DHT22;9499;52.472;13.448;2023-11-21T06:35:27;5.70;99.90
18741;DHT22;9499;52.472;13.448;2023-11-21T06:37:55;5.70;99.90
18741;DHT22;9499;52.472;13.448;2023-11-21T06:40:24;5.70;99.90
18741;DHT22;9499;52.472;13.448;2023-11-21T06:42:50;5.70;99.90
18741;DHT22;9499;52.472;13.448;2023-11-21T06:45:17;5.70;99.90
18741;DHT22;9499;52.472;13.448;2023-11-21T06:47:43;5.70;99.90
18741;DHT22;9499;52.472;13.448;2023-11-21T06:50:10;5.70;99.90
18741;DHT22;9499;52.472;13.448;2023-11-21T06:52:37;5.70;99.90
18741;DHT22;9499;52.472;13.448;2023-11-21T06:55:04;5.70;99.90
18741;DHT22;9499;52.472;13.448;2023-11-21T06:57:34;5.70;99.90
18741;DHT22;9499;52.472;13.448;2023-11-21T07:00:01;5.70;99.90
18741;DHT22;9499;52.472;13.448;2023-11-21T07:02:28;5.70;99.90
18741;DHT22;9499;52.472;13.448;2023-11-21T07:04:55;5.70;99.90
18741;DHT22;9499;52.472;13.448;2023-11-21T07:07:21;5.70;99.90
18741;DHT22;9499;52.472;13.448;2023-11-21T07:09:48;5.60;99.90
18741;DHT22;9499;52.472;13.448;2023-11-21T07:12:14;5.60;99.90
18741;DHT22;9499;52.472;13.448;2023-11-21T07:14:42;5.60;99.90
18741;DHT22;9499;52.472;13.448;2023-11-21T07:17:10;5.60;99.90
18741;DHT22;9499;52.472;13.448;2023-11-21T07:19:37;5.60;99.90
18741;DHT22;9499;52.472;13.448;2023-11-21T07:22:04;5.60;99.90
18741;DHT22;9499;52.472;13.448;2023-11-21T07:24:31;5.70;99.90
18741;DHT22;9499;52.472;13.448;2023-11-21T07:26:57;5.70;99.90
18741;DHT22;9499;52.472;13.448;2023-11-21T07:29:24;5.70;99.90
18741;DHT22;9499;52.472;13.448;2023-11-21T07:31:53;5.70;99.90
18741;DHT22;9499;52.472;13.448;2023-11-21T07:34:19;5.60;99.90
18741;DHT22;9499;52.472;13.448;2023-11-21T07:36:46;5.70;99.90
18741;DHT22;9499;52.472;13.448;2023-11-21T07:39:13;5.60;99.90
18741;DHT22;9499;52.472;13.448;2023-11-21T07:41:41;5.60;99.90
18741;DHT22;9499;52.472;13.448;2023-11-21T07:44:11;5.60;99.90
18741;DHT22;9499;52.472;13.448;2023-11-21T07:46:37;5.70;99.90
18741;DHT22;9499;52.472;13.448;2023-11-21T07:49:05;5.60;99.90
18741;DHT22;9499;52.472;13.448;2023-11-21T07:51:31;5.60;99.90
18741;DHT22;9499;52.472;13.448;2023-11-21T07:53:58;5.60;99.90
18741;DHT22;9499;52.472;13.448;2023-11-21T07:56:26;5.60;99.90
18741;DHT22;9499;52.472;13.448;2023-11-21T07:58:52;5.50;99.90
18741;DHT22;9499;52.472;13.448;2023-11-21T08:01:19;5.40;99.90
18741;DHT22;9499;52.472;13.448;2023-11-21T08:03:45;5.50;99.90
18741;DHT22;9499;52.472;13.448;2023-11-21T08:06:13;5.50;99.90
18741;DHT22;9499;52.472;13.448;2023-11-21T08:08:41;5.40;99.90
18741;DHT22;9499;52.472;13.448;2023-11-21T08:11:08;5.40;99.90
18741;DHT22;9499;52.472;13.448;2023-11-21T08:13:35;5.40;99.90
18741;DHT22;9499;52.472;13.448;2023-11-21T08:16:02;5.50;99.90
18741;DHT22;9499;52.472;13.448;2023-11-21T08:18:29;5.50;99.90
18741;DHT22;9499;52.472;13.448;2023-11-21T08:20:56;5.50;99.90
18741;DHT22;9499;52.472;13.448;2023-11-21T08:23:24;5.40;99.90
18741;DHT22;9499;52.472;13.448;2023-11-21T08:25:52;5.40;99.90
18741;DHT22;9499;52.472;13.448;2023-11-21T08:28:19;5.40;99.90
18741;DHT22;9499;52.472;13.448;2023-11-21T08:30:47;5.40;99.90
18741;DHT22;9499;52.472;13.448;2023-11-21T08:33:14;5.40;99.90
18741;DHT22;9499;52.472;13.448;2023-11-21T08:35:40;5.40;99.90
18741;DHT22;9499;52.472;13.448;2023-11-21T08:38:07;5.40;99.90
18741;DHT22;9499;52.472;13.448;2023-11-21T08:40:36;5.40;99.90
18741;DHT22;9499;52.472;13.448;2023-11-21T08:43:03;5.40;99.90
18741;DHT22;9499;52.472;13.448;2023-11-21T08:45:30;5.30;99.90
18741;DHT22;9499;52.472;13.448;2023-11-21T08:47:56;5.40;99.90
18741;DHT22;9499;52.472;13.448;2023-11-21T08:50:23;5.40;99.90
18741;DHT22;9499;52.472;13.448;2023-11-21T08:52:49;5.30;99.90
18741;DHT22;9499;52.472;13.448;2023-11-21T08:55:16;5.40;99.90
18741;DHT22;9499;52.472;13.448;2023-11-21T08:57:46;5.40;99.90
18741;DHT22;9499;52.472;13.448;2023-11-21T09:00:13;5.40;99.90
18741;DHT22;9499;52.472;13.448;2023-11-21T09:02:42;5.50;99.90
18741;DHT22;9499;52.472;13.448;2023-11-21T09:05:09;5.50;99.90
18741;DHT22;9499;52.472;13.448;2023-11-21T09:07:36;5.40;99.90
18741;DHT22;9499;52.472;13.448;2023-11-21T09:10:02;5.40;99.90
18741;DHT22;9499;52.472;13.448;2023-11-21T09:12:29;5.30;99.90
18741;DHT22;9499;52.472;13.448;2023-11-21T09:14:59;5.40;99.90
18741;DHT22;9499;52.472;13.448;2023-11-21T09:17:25;5.40;99.90
18741;DHT22;9499;52.472;13.448;2023-11-21T09:19:52;5.50;99.90
18741;DHT22;9499;52.472;13.448;2023-11-21T09:22:18;5.50;99.90
18741;DHT22;9499;52.472;13.448;2023-11-21T09:24:45;5.40;99.90
18741;DHT22;9499;52.472;13.448;2023-11-21T09:27:11;5.40;99.90
18741;DHT22;9499;52.472;13.448;2023-11-21T09:29:38;5.40;99.90
18741;DHT22;9499;52.472;13.448;2023-11-21T09:32:06;5.30;99.90
18741;DHT22;9499;52.472;13.448;2023-11-21T09:34:33;5.30;99.90
18741;DHT22;9499;52.472;13.448;2023-11-21T09:37:02;5.20;99.90
18741;DHT22;9499;52.472;13.448;2023-11-21T09:39:31;5.20;99.90
18741;DHT22;9499;52.472;13.448;2023-11-21T09:42:02;5.20;99.90
18741;DHT22;9499;52.472;13.448;2023-11-21T09:44:34;5.20;99.90
18741;DHT22;9499;52.472;13.448;2023-11-21T09:47:02;5.30;99.90
18741;DHT22;9499;52.472;13.448;2023-11-21T09:49:32;5.30;99.90
18741;DHT22;9499;52.472;13.448;2023-11-21T09:52:01;5.30;99.90
18741;DHT22;9499;52.472;13.448;2023-11-21T09:54:28;5.30;99.90
18741;DHT22;9499;52.472;13.448;2023-11-21T09:56:57;5.40;99.90
18741;DHT22;9499;52.472;13.448;2023-11-21T09:59:24;5.40;99.90
18741;DHT22;9499;52.472;13.448;2023-11-21T10:01:50;5.40;99.90
18741;DHT22;9499;52.472;13.448;2023-11-21T10:04:17;5.50;99.90
18741;DHT22;9499;52.472;13.448;2023-11-21T10:06:46;5.40;99.90
18741;DHT22;9499;52.472;13.448;2023-11-21T10:09:15;5.40;99.90
18741;DHT22;9499;52.472;13.448;2023-11-21T10:11:43;5.40;99.90
18741;DHT22;9499;52.472;13.448;2023-11-21T10:14:10;5.40;99.90
18741;DHT22;9499;52.472;13.448;2023-11-21T10:16:39;5.40;99.90
18741;DHT22;9499;52.472;13.448;2023-11-21T10:19:08;5.40;99.90
18741;DHT22;9499;52.472;13.448;2023-11-21T10:21:36;5.30;99.90
18741;DHT22;9499;52.472;13.448;2023-11-21T10:24:06;5.30;99.90
18741;DHT22;9499;52.472;13.448;2023-11-21T10:26:32;5.30;99.90
18741;DHT22;9499;52.472;13.448;2023-11-21T10:29:01;5.30;99.90
18741;DHT22;9499;52.472;13.448;2023-11-21T10:31:29;5.30;99.90
18741;DHT22;9499;52.472;13.448;2023-11-21T10:34:10;5.30;99.90
18741;DHT22;9499;52.472;13.448;2023-11-21T10:36:36;5.30;99.90
18741;DHT22;9499;52.472;13.448;2023-11-21T10:39:04;5.30;99.90
18741;DHT22;9499;52.472;13.448;2023-11-21T10:41:32;5.30;99.90
18741;DHT22;9499;52.472;13.448;2023-11-21T10:43:58;5.30;99.90
18741;DHT22;9499;52.472;13.448;2023-11-21T10:46:25;5.30;99.90
18741;DHT22;9499;52.472;13.448;2023-11-21T10:48:52;5.40;99.90
18741;DHT22;9499;52.472;13.448;2023-11-21T10:51:21;5.40;99.90
18741;DHT22;9499;52.472;13.448;2023-11-21T10:53:49;5.30;99.90
18741;DHT22;9499;52.472;13.448;2023-11-21T10:56:18;5.30;99.90
18741;DHT22;9499;52.472;13.448;2023-11-21T10:58:47;5.30;99.90
18741;DHT22;9499;52.472;13.448;2023-11-21T11:01:17;5.30;99.90
18741;DHT22;9499;52.472;13.448;2023-11-21T11:03:47;5.20;99.90
18741;DHT22;9499;52.472;13.448;2023-11-21T11:06:14;5.10;99.90
18741;DHT22;9499;52.472;13.448;2023-11-21T11:08:41;5.20;99.90
18741;DHT22;9499;52.472;13.448;2023-11-21T11:11:08;5.20;99.90
18741;DHT22;9499;52.472;13.448;2023-11-21T11:13:37;5.20;99.90
18741;DHT22;9499;52.472;13.448;2023-11-21T11:16:05;5.20;99.90
18741;DHT22;9499;52.472;13.448;2023-11-21T11:18:35;5.10;99.90
18741;DHT22;9499;52.472;13.448;2023-11-21T11:21:16;5.10;99.90
18741;DHT22;9499;52.472;13.448;2023-11-21T11:23:59;5.10;99.90
18741;DHT22;9499;52.472;13.448;2023-11-21T11:26:39;5.20;99.90
18741;DHT22;9499;52.472;13.448;2023-11-21T11:29:14;5.20;99.90
18741;DHT22;9499;52.472;13.448;2023-11-21T11:31:55;5.20;99.90
18741;DHT22;9499;52.472;13.448;2023-11-21T11:34:29;5.10;99.90
18741;DHT22;9499;52.472;13.448;2023-11-21T11:37:00;5.10;99.90
18741;DHT22;9499;52.472;13.448;2023-11-21T11:39:28;5.10;99.90
18741;DHT22;9499;52.472;13.448;2023-11-21T11:41:56;5.00;99.90
18741;DHT22;9499;52.472;13.448;2023-11-21T11:44:48;5.00;99.90
18741;DHT22;9499;52.472;13.448;2023-11-21T11:47:19;5.10;99.90
18741;DHT22;9499;52.472;13.448;2023-11-21T11:50:05;5.00;99.90
18741;DHT22;9499;52.472;13.448;2023-11-21T11:52:35;5.00;99.90
18741;DHT22;9499;52.472;13.448;2023-11-21T11:55:02;4.90;99.90
18741;DHT22;9499;52.472;13.448;2023-11-21T11:57:30;4.90;99.90
18741;DHT22;9499;52.472;13.448;2023-11-21T12:00:18;4.90;99.90
18741;DHT22;9499;52.472;13.448;2023-11-21T12:02:47;4.90;99.90
18741;DHT22;9499;52.472;13.448;2023-11-21T12:05:14;4.80;99.90
18741;DHT22;9499;52.472;13.448;2023-11-21T12:07:45;4.80;99.90
18741;DHT22;9499;52.472;13.448;2023-11-21T12:10:14;4.80;99.90
18741;DHT22;9499;52.472;13.448;2023-11-21T12:12:43;4.80;99.90
18741;DHT22;9499;52.472;13.448;2023-11-21T12:15:11;4.90;99.90
18741;DHT22;9499;52.472;13.448;2023-11-21T12:17:40;4.90;99.90
18741;DHT22;9499;52.472;13.448;2023-11-21T12:20:08;4.90;99.90
18741;DHT22;9499;52.472;13.448;2023-11-21T12:22:43;4.80;99.90
18741;DHT22;9499;52.472;13.448;2023-11-21T12:25:09;4.80;99.90
18741;DHT22;9499;52.472;13.448;2023-11-21T12:27:40;4.70;99.90
18741;DHT22;9499;52.472;13.448;2023-11-21T12:30:07;4.70;99.90
18741;DHT22;9499;52.472;13.448;2023-11-21T12:32:40;4.70;99.90
18741;DHT22;9499;52.472;13.448;2023-11-21T12:35:08;4.60;99.90
18741;DHT22;9499;52.472;13.448;2023-11-21T12:37:35;4.70;99.90
18741;DHT22;9499;52.472;13.448;2023-11-21T12:40:02;4.80;99.90
18741;DHT22;9499;52.472;13.448;2023-11-21T12:42:29;4.80;99.90
18741;DHT22;9499;52.472;13.448;2023-11-21T12:45:10;4.80;99.90
18741;DHT22;9499;52.472;13.448;2023-11-21T12:47:43;4.80;99.90
18741;DHT22;9499;52.472;13.448;2023-11-21T12:50:10;4.80;99.90
18741;DHT22;9499;52.472;13.448;2023-11-21T12:52:41;4.70;99.90
18741;DHT22;9499;52.472;13.448;2023-11-21T12:55:09;4.70;99.90
18741;DHT22;9499;52.472;13.448;2023-11-21T12:57:41;4.70;99.90
18741;DHT22;9499;52.472;13.448;2023-11-21T13:00:09;4.70;99.90
18741;DHT22;9499;52.472;13.448;2023-11-21T13:02:54;4.70;99.90
18741;DHT22;9499;52.472;13.448;2023-11-21T13:05:26;4.60;99.90
18741;DHT22;9499;52.472;13.448;2023-11-21T13:07:53;4.70;99.90
18741;DHT22;9499;52.472;13.448;2023-11-21T13:10:23;4.70;99.90
18741;DHT22;9499;52.472;13.448;2023-11-21T13:12:51;4.70;99.90
18741;DHT22;9499;52.472;13.448;2023-11-21T13:15:19;4.70;99.90
18741;DHT22;9499;52.472;13.448;2023-11-21T13:17:45;4.70;99.90
18741;DHT22;9499;52.472;13.448;2023-11-21T13:20:13;4.70;99.90
18741;DHT22;9499;52.472;13.448;2023-11-21T13:22:46;4.70;99.90
18741;DHT22;9499;52.472;13.448;2023-11-21T13:25:14;4.70;99.90
18741;DHT22;9499;52.472;13.448;2023-11-21T13:27:43;4.60;99.90
18741;DHT22;9499;52.472;13.448;2023-11-21T13:30:11;4.60;99.90
18741;DHT22;9499;52.472;13.448;2023-11-21T13:32:40;4.50;99.90
18741;DHT22;9499;52.472;13.448;2023-11-21T13:35:07;4.50;99.90
18741;DHT22;9499;52.472;13.448;2023-11-21T13:37:41;4.50;99.90
18741;DHT22;9499;52.472;13.448;2023-11-21T13:40:11;4.50;99.90
18741;DHT22;9499;52.472;13.448;2023-11-21T13:42:40;4.40;99.90
18741;DHT22;9499;52.472;13.448;2023-11-21T13:45:07;4.40;99.90
18741;DHT22;9499;52.472;13.448;2023-11-21T13:47:34;4.40;99.90
18741;DHT22;9499;52.472;13.448;2023-11-21T13:50:04;4.40;99.90
18741;DHT22;9499;52.472;13.448;2023-11-21T13:52:33;4.30;99.90
18741;DHT22;9499;52.472;13.448;2023-11-21T13:55:03;4.30;99.90
18741;DHT22;9499;52.472;13.448;2023-11-21T13:57:31;4.30;99.90
18741;DHT22;9499;52.472;13.448;2023-11-21T13:59:58;4.30;99.90
18741;DHT22;9499;52.472;13.448;2023-11-21T14:02:26;4.30;99.90
18741;DHT22;9499;52.472;13.448;2023-11-21T14:05:00;4.30;99.90
18741;DHT22;9499;52.472;13.448;2023-11-21T14:07:34;4.30;99.90
18741;DHT22;9499;52.472;13.448;2023-11-21T14:10:02;4.30;99.90
18741;DHT22;9499;52.472;13.448;2023-11-21T14:12:30;4.20;99.90
18741;DHT22;9499;52.472;13.448;2023-11-21T14:15:00;4.20;99.90
18741;DHT22;9499;52.472;13.448;2023-11-21T14:17:28;4.20;99.90
18741;DHT22;9499;52.472;13.448;2023-11-21T14:19:54;4.10;99.90
18741;DHT22;9499;52.472;13.448;2023-11-21T14:22:21;4.00;99.90
18741;DHT22;9499;52.472;13.448;2023-11-21T14:24:48;3.90;99.90
18741;DHT22;9499;52.472;13.448;2023-11-21T14:27:18;3.90;99.90
18741;DHT22;9499;52.472;13.448;2023-11-21T14:29:45;3.90;99.90
18741;DHT22;9499;52.472;13.448;2023-11-21T14:32:12;3.90;99.90
18741;DHT22;9499;52.472;13.448;2023-11-21T14:34:39;3.90;99.90
18741;DHT22;9499;52.472;13.448;2023-11-21T14:37:08;3.90;99.90
18741;DHT22;9499;52.472;13.448;2023-11-21T14:39:34;3.90;99.90
18741;DHT22;9499;52.472;13.448;2023-11-21T14:42:06;4.00;99.90
18741;DHT22;9499;52.472;13.448;2023-11-21T14:44:34;3.90;99.90
18741;DHT22;9499;52.472;13.448;2023-11-21T14:47:05;3.80;99.90
18741;DHT22;9499;52.472;13.448;2023-11-21T14:49:40;3.70;99.90
18741;DHT22;9499;52.472;13.448;2023-11-21T14:52:18;3.70;99.90
18741;DHT22;9499;52.472;13.448;2023-11-21T14:54:57;3.80;99.90
18741;DHT22;9499;52.472;13.448;2023-11-21T14:57:44;3.80;99.90
18741;DHT22;9499;52.472;13.448;2023-11-21T15:00:16;3.70;99.90
18741;DHT22;9499;52.472;13.448;2023-11-21T15:03:04;3.70;99.90
18741;DHT22;9499;52.472;13.448;2023-11-21T15:05:32;3.60;99.90
18741;DHT22;9499;52.472;13.448;2023-11-21T15:08:00;3.60;99.90
18741;DHT22;9499;52.472;13.448;2023-11-21T15:10:39;3.50;99.90
18741;DHT22;9499;52.472;13.448;2023-11-21T15:13:11;3.50;99.90
18741;DHT22;9499;52.472;13.448;2023-11-21T15:15:38;3.50;99.90
18741;DHT22;9499;52.472;13.448;2023-11-21T15:18:05;3.50;99.90
18741;DHT22;9499;52.472;13.448;2023-11-21T15:20:32;3.50;99.90
18741;DHT22;9499;52.472;13.448;2023-11-21T15:22:58;3.50;99.90
18741;DHT22;9499;52.472;13.448;2023-11-21T15:25:25;3.60;99.90
18741;DHT22;9499;52.472;13.448;2023-11-21T15:27:51;3.40;99.90
18741;DHT22;9499;52.472;13.448;2023-11-21T15:30:18;3.40;99.90
18741;DHT22;9499;52.472;13.448;2023-11-21T15:32:51;3.50;99.90
18741;DHT22;9499;52.472;13.448;2023-11-21T15:35:18;3.40;99.90
18741;DHT22;9499;52.472;13.448;2023-11-21T15:37:45;3.50;99.90
18741;DHT22;9499;52.472;13.448;2023-11-21T15:40:12;3.50;99.90
18741;DHT22;9499;52.472;13.448;2023-11-21T15:42:41;3.50;99.90
18741;DHT22;9499;52.472;13.448;2023-11-21T15:45:09;3.50;99.90
18741;DHT22;9499;52.472;13.448;2023-11-21T15:47:35;3.40;99.90
18741;DHT22;9499;52.472;13.448;2023-11-21T15:50:04;3.40;99.90